sensor_id;sensor_type;location;lat;lon;timestamp;P1;durP1;ratioP1;P2;durP2;ratioP2
82022;SDS011;71575;49.908;18.356;2024-03-06T00:01:28;64.47;;;30.60;;
82022;SDS011;71575;49.908;18.356;2024-03-06T00:04:29;61.55;;;31.95;;
82022;SDS011;71575;49.908;18.356;2024-03-06T00:07:30;60.78;;;31.77;;
82022;SDS011;71575;49.908;18.356;2024-03-06T00:10:31;56.10;;;27.55;;
82022;SDS011;71575;49.908;18.356;2024-03-06T00:13:32;59.95;;;32.42;;
82022;SDS011;71575;49.908;18.356;2024-03-06T00:16:32;63.72;;;32.80;;
82022;SDS011;71575;49.908;18.356;2024-03-06T00:19:34;60.58;;;32.13;;
82022;SDS011;71575;49.908;18.356;2024-03-06T00:22:35;61.55;;;31.63;;
82022;SDS011;71575;49.908;18.356;2024-03-06T00:25:36;59.75;;;30.40;;
82022;SDS011;71575;49.908;18.356;2024-03-06T00:28:36;58.35;;;31.33;;
82022;SDS011;71575;49.908;18.356;2024-03-06T00:31:41;64.55;;;33.08;;
82022;SDS011;71575;49.908;18.356;2024-03-06T00:34:42;60.17;;;30.40;;
82022;SDS011;71575;49.908;18.356;2024-03-06T00:37:43;58.38;;;27.75;;
82022;SDS011;71575;49.908;18.356;2024-03-06T00:40:44;60.35;;;28.17;;
82022;SDS011;71575;49.908;18.356;2024-03-06T00:43:45;63.35;;;29.23;;
82022;SDS011;71575;49.908;18.356;2024-03-06T00:46:45;60.25;;;31.45;;
82022;SDS011;71575;49.908;18.356;2024-03-06T00:49:46;63.50;;;32.65;;
82022;SDS011;71575;49.908;18.356;2024-03-06T00:52:48;58.40;;;31.67;;
82022;SDS011;71575;49.908;18.356;2024-03-06T00:55:48;63.03;;;35.33;;
82022;SDS011;71575;49.908;18.356;2024-03-06T00:58:49;59.88;;;31.23;;
82022;SDS011;71575;49.908;18.356;2024-03-06T01:01:50;57.58;;;32.45;;
82022;SDS011;71575;49.908;18.356;2024-03-06T01:04:50;55.92;;;33.40;;
82022;SDS011;71575;49.908;18.356;2024-03-06T01:07:51;58.90;;;32.70;;
82022;SDS011;71575;49.908;18.356;2024-03-06T01:10:52;57.03;;;30.10;;
82022;SDS011;71575;49.908;18.356;2024-03-06T01:13:53;54.55;;;30.33;;
82022;SDS011;71575;49.908;18.356;2024-03-06T01:16:54;59.03;;;32.17;;
82022;SDS011;71575;49.908;18.356;2024-03-06T01:19:56;53.35;;;30.55;;
82022;SDS011;71575;49.908;18.356;2024-03-06T01:22:56;60.47;;;32.45;;
82022;SDS011;71575;49.908;18.356;2024-03-06T01:25:57;55.67;;;26.85;;
82022;SDS011;71575;49.908;18.356;2024-03-06T01:28:58;65.60;;;34.25;;
82022;SDS011;71575;49.908;18.356;2024-03-06T01:31:58;63.17;;;33.05;;
82022;SDS011;71575;49.908;18.356;2024-03-06T01:34:59;61.85;;;33.28;;
82022;SDS011;71575;49.908;18.356;2024-03-06T01:38:00;64.72;;;33.42;;
82022;SDS011;71575;49.908;18.356;2024-03-06T01:41:02;61.67;;;30.15;;
82022;SDS011;71575;49.908;18.356;2024-03-06T01:44:03;65.40;;;34.08;;
82022;SDS011;71575;49.908;18.356;2024-03-06T01:47:03;62.85;;;31.30;;
82022;SDS011;71575;49.908;18.356;2024-03-06T01:50:05;62.00;;;31.25;;
82022;SDS011;71575;49.908;18.356;2024-03-06T01:53:07;59.65;;;29.70;;
82022;SDS011;71575;49.908;18.356;2024-03-06T01:56:08;53.60;;;25.20;;
82022;SDS011;71575;49.908;18.356;2024-03-06T01:59:09;53.47;;;29.23;;
82022;SDS011;71575;49.908;18.356;2024-03-06T02:02:11;52.75;;;27.38;;
82022;SDS011;71575;49.908;18.356;2024-03-06T02:05:12;51.90;;;28.52;;
82022;SDS011;71575;49.908;18.356;2024-03-06T02:08:12;49.90;;;27.85;;
82022;SDS011;71575;49.908;18.356;2024-03-06T02:11:13;47.85;;;26.88;;
82022;SDS011;71575;49.908;18.356;2024-03-06T02:14:14;45.25;;;22.70;;
82022;SDS011;71575;49.908;18.356;2024-03-06T02:17:16;53.20;;;28.35;;
82022;SDS011;71575;49.908;18.356;2024-03-06T02:20:20;52.28;;;27.73;;
82022;SDS011;71575;49.908;18.356;2024-03-06T02:23:22;52.15;;;26.63;;
82022;SDS011;71575;49.908;18.356;2024-03-06T02:26:23;51.00;;;28.20;;
82022;SDS011;71575;49.908;18.356;2024-03-06T02:29:24;52.67;;;27.77;;
82022;SDS011;71575;49.908;18.356;2024-03-06T02:32:24;53.22;;;28.05;;
82022;SDS011;71575;49.908;18.356;2024-03-06T02:35:25;55.80;;;29.10;;
82022;SDS011;71575;49.908;18.356;2024-03-06T02:38:26;46.55;;;26.25;;
82022;SDS011;71575;49.908;18.356;2024-03-06T02:41:26;57.03;;;28.88;;
82022;SDS011;71575;49.908;18.356;2024-03-06T02:44:27;47.20;;;26.35;;
82022;SDS011;71575;49.908;18.356;2024-03-06T02:47:28;54.78;;;29.30;;
82022;SDS011;71575;49.908;18.356;2024-03-06T02:50:29;50.67;;;23.80;;
82022;SDS011;71575;49.908;18.356;2024-03-06T02:53:29;53.65;;;27.67;;
82022;SDS011;71575;49.908;18.356;2024-03-06T02:56:30;56.60;;;29.17;;
82022;SDS011;71575;49.908;18.356;2024-03-06T02:59:30;50.10;;;26.13;;
82022;SDS011;71575;49.908;18.356;2024-03-06T03:02:31;48.50;;;26.92;;
82022;SDS011;71575;49.908;18.356;2024-03-06T03:05:32;49.35;;;26.80;;
82022;SDS011;71575;49.908;18.356;2024-03-06T03:08:32;50.55;;;27.17;;
82022;SDS011;71575;49.908;18.356;2024-03-06T03:11:34;50.95;;;26.65;;
82022;SDS011;71575;49.908;18.356;2024-03-06T03:14:35;47.45;;;26.40;;
82022;SDS011;71575;49.908;18.356;2024-03-06T03:17:35;52.38;;;26.55;;
82022;SDS011;71575;49.908;18.356;2024-03-06T03:20:36;49.92;;;28.35;;
82022;SDS011;71575;49.908;18.356;2024-03-06T03:23:37;46.30;;;26.70;;
82022;SDS011;71575;49.908;18.356;2024-03-06T03:26:40;46.10;;;24.27;;
82022;SDS011;71575;49.908;18.356;2024-03-06T03:29:41;48.50;;;26.42;;
82022;SDS011;71575;49.908;18.356;2024-03-06T03:32:43;49.80;;;26.83;;
82022;SDS011;71575;49.908;18.356;2024-03-06T03:35:46;48.35;;;27.13;;
82022;SDS011;71575;49.908;18.356;2024-03-06T03:38:46;52.38;;;28.00;;
82022;SDS011;71575;49.908;18.356;2024-03-06T03:41:47;48.40;;;26.20;;
82022;SDS011;71575;49.908;18.356;2024-03-06T03:44:48;49.78;;;26.30;;
82022;SDS011;71575;49.908;18.356;2024-03-06T03:47:49;48.60;;;28.08;;
82022;SDS011;71575;49.908;18.356;2024-03-06T03:50:50;54.22;;;27.80;;
82022;SDS011;71575;49.908;18.356;2024-03-06T03:53:50;51.20;;;26.92;;
82022;SDS011;71575;49.908;18.356;2024-03-06T03:56:51;53.50;;;29.20;;
82022;SDS011;71575;49.908;18.356;2024-03-06T03:59:52;50.33;;;25.90;;
82022;SDS011;71575;49.908;18.356;2024-03-06T04:02:52;49.50;;;26.45;;
82022;SDS011;71575;49.908;18.356;2024-03-06T04:05:53;49.05;;;25.60;;
82022;SDS011;71575;49.908;18.356;2024-03-06T04:08:54;48.90;;;26.63;;
82022;SDS011;71575;49.908;18.356;2024-03-06T04:11:54;51.85;;;25.80;;
82022;SDS011;71575;49.908;18.356;2024-03-06T04:14:56;46.53;;;25.42;;
82022;SDS011;71575;49.908;18.356;2024-03-06T04:17:56;45.45;;;25.83;;
82022;SDS011;71575;49.908;18.356;2024-03-06T04:20:57;52.50;;;28.02;;
82022;SDS011;71575;49.908;18.356;2024-03-06T04:23:58;51.00;;;28.67;;
82022;SDS011;71575;49.908;18.356;2024-03-06T04:26:59;54.42;;;26.92;;
82022;SDS011;71575;49.908;18.356;2024-03-06T04:29:59;50.50;;;25.17;;
82022;SDS011;71575;49.908;18.356;2024-03-06T04:33:01;50.90;;;29.83;;
82022;SDS011;71575;49.908;18.356;2024-03-06T04:36:03;52.60;;;30.10;;
82022;SDS011;71575;49.908;18.356;2024-03-06T04:39:04;52.53;;;27.65;;
82022;SDS011;71575;49.908;18.356;2024-03-06T04:42:05;58.83;;;29.45;;
82022;SDS011;71575;49.908;18.356;2024-03-06T04:45:09;50.30;;;28.45;;
82022;SDS011;71575;49.908;18.356;2024-03-06T04:48:11;50.60;;;27.60;;
82022;SDS011;71575;49.908;18.356;2024-03-06T04:51:11;46.15;;;25.63;;
82022;SDS011;71575;49.908;18.356;2024-03-06T04:54:12;51.67;;;27.77;;
82022;SDS011;71575;49.908;18.356;2024-03-06T04:57:13;56.00;;;29.98;;
82022;SDS011;71575;49.908;18.356;2024-03-06T05:00:15;51.10;;;28.50;;
82022;SDS011;71575;49.908;18.356;2024-03-06T05:03:16;49.17;;;26.45;;
82022;SDS011;71575;49.908;18.356;2024-03-06T05:06:16;52.25;;;27.92;;
82022;SDS011;71575;49.908;18.356;2024-03-06T05:09:18;57.10;;;28.90;;
82022;SDS011;71575;49.908;18.356;2024-03-06T05:12:19;51.53;;;27.55;;
82022;SDS011;71575;49.908;18.356;2024-03-06T05:15:20;48.40;;;23.55;;
82022;SDS011;71575;49.908;18.356;2024-03-06T05:18:20;49.55;;;25.90;;
82022;SDS011;71575;49.908;18.356;2024-03-06T05:21:21;47.95;;;27.45;;
82022;SDS011;71575;49.908;18.356;2024-03-06T05:24:21;46.97;;;23.13;;
82022;SDS011;71575;49.908;18.356;2024-03-06T05:27:22;54.58;;;28.42;;
82022;SDS011;71575;49.908;18.356;2024-03-06T05:30:23;52.60;;;28.10;;
82022;SDS011;71575;49.908;18.356;2024-03-06T05:33:24;47.13;;;26.17;;
82022;SDS011;71575;49.908;18.356;2024-03-06T05:36:24;52.97;;;28.20;;
82022;SDS011;71575;49.908;18.356;2024-03-06T05:39:26;55.05;;;27.17;;
82022;SDS011;71575;49.908;18.356;2024-03-06T05:42:27;48.80;;;26.38;;
82022;SDS011;71575;49.908;18.356;2024-03-06T05:45:29;52.22;;;26.15;;
82022;SDS011;71575;49.908;18.356;2024-03-06T05:48:31;51.03;;;26.20;;
82022;SDS011;71575;49.908;18.356;2024-03-06T05:51:32;60.65;;;27.65;;
82022;SDS011;71575;49.908;18.356;2024-03-06T05:54:32;52.72;;;28.33;;
82022;SDS011;71575;49.908;18.356;2024-03-06T05:57:34;51.88;;;29.08;;
82022;SDS011;71575;49.908;18.356;2024-03-06T06:00:36;54.30;;;30.00;;
82022;SDS011;71575;49.908;18.356;2024-03-06T06:03:37;54.28;;;29.58;;
82022;SDS011;71575;49.908;18.356;2024-03-06T06:06:37;60.45;;;32.95;;
82022;SDS011;71575;49.908;18.356;2024-03-06T06:09:39;61.33;;;31.65;;
82022;SDS011;71575;49.908;18.356;2024-03-06T06:12:40;56.72;;;30.67;;
82022;SDS011;71575;49.908;18.356;2024-03-06T06:15:41;58.33;;;29.33;;
82022;SDS011;71575;49.908;18.356;2024-03-06T06:18:41;63.40;;;32.17;;
82022;SDS011;71575;49.908;18.356;2024-03-06T06:21:42;58.63;;;30.95;;
82022;SDS011;71575;49.908;18.356;2024-03-06T06:24:42;61.17;;;32.03;;
82022;SDS011;71575;49.908;18.356;2024-03-06T06:27:44;63.83;;;31.40;;
82022;SDS011;71575;49.908;18.356;2024-03-06T06:30:45;61.70;;;26.73;;
82022;SDS011;71575;49.908;18.356;2024-03-06T06:33:46;57.13;;;29.70;;
82022;SDS011;71575;49.908;18.356;2024-03-06T06:36:46;54.35;;;28.52;;
82022;SDS011;71575;49.908;18.356;2024-03-06T06:39:47;56.63;;;29.70;;
82022;SDS011;71575;49.908;18.356;2024-03-06T06:42:48;62.33;;;31.70;;
82022;SDS011;71575;49.908;18.356;2024-03-06T06:45:50;72.10;;;32.65;;
82022;SDS011;71575;49.908;18.356;2024-03-06T06:48:50;73.18;;;34.58;;
82022;SDS011;71575;49.908;18.356;2024-03-06T06:51:51;81.30;;;35.33;;
82022;SDS011;71575;49.908;18.356;2024-03-06T06:54:52;95.78;;;45.25;;
82022;SDS011;71575;49.908;18.356;2024-03-06T06:57:53;83.68;;;41.05;;
82022;SDS011;71575;49.908;18.356;2024-03-06T07:00:53;84.93;;;42.38;;
82022;SDS011;71575;49.908;18.356;2024-03-06T07:03:54;78.45;;;39.25;;
82022;SDS011;71575;49.908;18.356;2024-03-06T07:06:57;81.80;;;40.90;;
82022;SDS011;71575;49.908;18.356;2024-03-06T07:09:57;75.97;;;39.42;;
82022;SDS011;71575;49.908;18.356;2024-03-06T07:12:58;74.22;;;38.80;;
82022;SDS011;71575;49.908;18.356;2024-03-06T07:16:02;68.75;;;34.17;;
82022;SDS011;71575;49.908;18.356;2024-03-06T07:19:04;69.65;;;33.42;;
82022;SDS011;71575;49.908;18.356;2024-03-06T07:22:05;74.95;;;34.45;;
82022;SDS011;71575;49.908;18.356;2024-03-06T07:25:05;70.30;;;33.20;;
82022;SDS011;71575;49.908;18.356;2024-03-06T07:28:07;64.63;;;29.60;;
82022;SDS011;71575;49.908;18.356;2024-03-06T07:31:07;73.68;;;35.47;;
82022;SDS011;71575;49.908;18.356;2024-03-06T07:34:08;72.53;;;33.85;;
82022;SDS011;71575;49.908;18.356;2024-03-06T07:37:10;62.90;;;32.80;;
82022;SDS011;71575;49.908;18.356;2024-03-06T07:40:11;66.40;;;32.95;;
82022;SDS011;71575;49.908;18.356;2024-03-06T07:43:11;60.40;;;30.10;;
82022;SDS011;71575;49.908;18.356;2024-03-06T07:46:12;59.65;;;30.08;;
82022;SDS011;71575;49.908;18.356;2024-03-06T07:49:13;60.22;;;31.65;;
82022;SDS011;71575;49.908;18.356;2024-03-06T07:52:14;58.90;;;29.50;;
82022;SDS011;71575;49.908;18.356;2024-03-06T07:55:15;61.90;;;31.02;;
82022;SDS011;71575;49.908;18.356;2024-03-06T07:58:15;67.15;;;30.30;;
82022;SDS011;71575;49.908;18.356;2024-03-06T08:01:16;65.93;;;28.17;;
82022;SDS011;71575;49.908;18.356;2024-03-06T08:04:17;70.38;;;33.05;;
82022;SDS011;71575;49.908;18.356;2024-03-06T08:07:18;68.20;;;34.10;;
82022;SDS011;71575;49.908;18.356;2024-03-06T08:10:20;68.28;;;34.67;;
82022;SDS011;71575;49.908;18.356;2024-03-06T08:13:23;66.50;;;30.08;;
82022;SDS011;71575;49.908;18.356;2024-03-06T08:16:24;64.88;;;30.65;;
82022;SDS011;71575;49.908;18.356;2024-03-06T08:19:25;70.50;;;32.22;;
82022;SDS011;71575;49.908;18.356;2024-03-06T08:22:26;62.22;;;30.02;;
82022;SDS011;71575;49.908;18.356;2024-03-06T08:25:27;61.78;;;28.90;;
82022;SDS011;71575;49.908;18.356;2024-03-06T08:28:27;62.53;;;28.30;;
82022;SDS011;71575;49.908;18.356;2024-03-06T08:31:28;56.80;;;28.77;;
82022;SDS011;71575;49.908;18.356;2024-03-06T08:34:28;56.65;;;27.92;;
82022;SDS011;71575;49.908;18.356;2024-03-06T08:37:29;58.22;;;28.98;;
82022;SDS011;71575;49.908;18.356;2024-03-06T08:40:30;46.30;;;24.98;;
82022;SDS011;71575;49.908;18.356;2024-03-06T08:43:31;41.58;;;21.60;;
82022;SDS011;71575;49.908;18.356;2024-03-06T08:46:31;43.30;;;22.42;;
82022;SDS011;71575;49.908;18.356;2024-03-06T08:49:32;39.08;;;18.80;;
82022;SDS011;71575;49.908;18.356;2024-03-06T08:52:33;39.20;;;21.77;;
82022;SDS011;71575;49.908;18.356;2024-03-06T08:55:33;38.90;;;20.83;;
82022;SDS011;71575;49.908;18.356;2024-03-06T08:58:35;40.58;;;23.25;;
82022;SDS011;71575;49.908;18.356;2024-03-06T09:01:36;44.33;;;19.05;;
82022;SDS011;71575;49.908;18.356;2024-03-06T09:04:36;42.90;;;25.15;;
82022;SDS011;71575;49.908;18.356;2024-03-06T09:07:37;45.92;;;24.33;;
82022;SDS011;71575;49.908;18.356;2024-03-06T09:10:37;43.53;;;22.98;;
82022;SDS011;71575;49.908;18.356;2024-03-06T09:13:38;46.63;;;23.75;;
82022;SDS011;71575;49.908;18.356;2024-03-06T09:16:39;46.70;;;26.27;;
82022;SDS011;71575;49.908;18.356;2024-03-06T09:19:40;45.25;;;20.88;;
82022;SDS011;71575;49.908;18.356;2024-03-06T09:22:42;41.33;;;21.95;;
82022;SDS011;71575;49.908;18.356;2024-03-06T09:25:43;41.65;;;22.05;;
82022;SDS011;71575;49.908;18.356;2024-03-06T09:28:44;36.90;;;19.95;;
82022;SDS011;71575;49.908;18.356;2024-03-06T09:31:44;34.72;;;19.92;;
82022;SDS011;71575;49.908;18.356;2024-03-06T09:34:45;32.67;;;18.17;;
82022;SDS011;71575;49.908;18.356;2024-03-06T09:37:46;32.55;;;18.75;;
82022;SDS011;71575;49.908;18.356;2024-03-06T09:40:46;27.55;;;15.75;;
82022;SDS011;71575;49.908;18.356;2024-03-06T09:43:47;32.83;;;17.48;;
82022;SDS011;71575;49.908;18.356;2024-03-06T09:46:48;33.15;;;17.38;;
82022;SDS011;71575;49.908;18.356;2024-03-06T09:49:51;32.03;;;17.75;;
82022;SDS011;71575;49.908;18.356;2024-03-06T09:52:52;30.83;;;15.55;;
82022;SDS011;71575;49.908;18.356;2024-03-06T09:55:53;30.23;;;15.52;;
82022;SDS011;71575;49.908;18.356;2024-03-06T09:58:53;27.58;;;16.90;;
82022;SDS011;71575;49.908;18.356;2024-03-06T10:01:58;27.60;;;15.30;;
82022;SDS011;71575;49.908;18.356;2024-03-06T10:04:58;32.05;;;15.70;;
82022;SDS011;71575;49.908;18.356;2024-03-06T10:08:02;30.00;;;16.65;;
82022;SDS011;71575;49.908;18.356;2024-03-06T10:11:03;28.92;;;16.10;;
82022;SDS011;71575;49.908;18.356;2024-03-06T10:14:04;28.63;;;15.38;;
82022;SDS011;71575;49.908;18.356;2024-03-06T10:17:05;27.83;;;14.68;;
82022;SDS011;71575;49.908;18.356;2024-03-06T10:20:19;23.60;;;12.07;;
82022;SDS011;71575;49.908;18.356;2024-03-06T10:23:21;29.13;;;15.15;;
82022;SDS011;71575;49.908;18.356;2024-03-06T10:26:24;29.95;;;15.38;;
82022;SDS011;71575;49.908;18.356;2024-03-06T10:29:26;29.08;;;15.40;;
82022;SDS011;71575;49.908;18.356;2024-03-06T10:32:30;23.08;;;13.25;;
82022;SDS011;71575;49.908;18.356;2024-03-06T10:35:31;23.52;;;12.75;;
82022;SDS011;71575;49.908;18.356;2024-03-06T10:38:34;19.67;;;11.60;;
82022;SDS011;71575;49.908;18.356;2024-03-06T10:41:37;22.23;;;12.98;;
82022;SDS011;71575;49.908;18.356;2024-03-06T10:44:39;21.58;;;13.77;;
82022;SDS011;71575;49.908;18.356;2024-03-06T10:47:48;21.73;;;11.82;;
82022;SDS011;71575;49.908;18.356;2024-03-06T10:50:49;21.90;;;12.45;;
82022;SDS011;71575;49.908;18.356;2024-03-06T10:53:53;18.30;;;11.18;;
82022;SDS011;71575;49.908;18.356;2024-03-06T10:56:56;19.38;;;11.20;;
82022;SDS011;71575;49.908;18.356;2024-03-06T10:59:58;24.00;;;10.65;;
82022;SDS011;71575;49.908;18.356;2024-03-06T11:03:00;17.65;;;9.20;;
82022;SDS011;71575;49.908;18.356;2024-03-06T11:06:02;21.25;;;11.18;;
82022;SDS011;71575;49.908;18.356;2024-03-06T11:09:04;21.00;;;12.50;;
82022;SDS011;71575;49.908;18.356;2024-03-06T11:12:05;22.00;;;12.10;;
82022;SDS011;71575;49.908;18.356;2024-03-06T11:15:14;19.45;;;11.02;;
82022;SDS011;71575;49.908;18.356;2024-03-06T11:21:31;19.08;;;10.93;;
82022;SDS011;71575;49.908;18.356;2024-03-06T11:24:33;17.88;;;10.70;;
82022;SDS011;71575;49.908;18.356;2024-03-06T11:28:01;15.70;;;9.48;;
82022;SDS011;71575;49.908;18.356;2024-03-06T11:31:04;20.35;;;11.38;;
82022;SDS011;71575;49.908;18.356;2024-03-06T11:34:06;22.13;;;11.63;;
82022;SDS011;71575;49.908;18.356;2024-03-06T11:37:13;20.65;;;13.00;;
82022;SDS011;71575;49.908;18.356;2024-03-06T11:40:24;19.38;;;12.18;;
82022;SDS011;71575;49.908;18.356;2024-03-06T11:43:26;20.05;;;10.95;;
82022;SDS011;71575;49.908;18.356;2024-03-06T11:49:47;19.20;;;12.10;;
82022;SDS011;71575;49.908;18.356;2024-03-06T11:52:51;20.08;;;11.55;;
82022;SDS011;71575;49.908;18.356;2024-03-06T11:58:59;21.80;;;9.75;;
82022;SDS011;71575;49.908;18.356;2024-03-06T12:02:00;21.00;;;11.95;;
82022;SDS011;71575;49.908;18.356;2024-03-06T12:05:02;18.38;;;10.57;;
82022;SDS011;71575;49.908;18.356;2024-03-06T12:08:03;20.17;;;11.00;;
82022;SDS011;71575;49.908;18.356;2024-03-06T12:11:05;17.45;;;11.93;;
82022;SDS011;71575;49.908;18.356;2024-03-06T12:14:08;18.45;;;8.85;;
82022;SDS011;71575;49.908;18.356;2024-03-06T12:17:13;17.73;;;10.63;;
82022;SDS011;71575;49.908;18.356;2024-03-06T12:20:14;17.55;;;11.23;;
82022;SDS011;71575;49.908;18.356;2024-03-06T12:23:22;17.75;;;11.02;;
82022;SDS011;71575;49.908;18.356;2024-03-06T12:26:23;19.35;;;10.40;;
82022;SDS011;71575;49.908;18.356;2024-03-06T12:29:28;21.30;;;12.25;;
82022;SDS011;71575;49.908;18.356;2024-03-06T12:32:29;20.80;;;11.00;;
82022;SDS011;71575;49.908;18.356;2024-03-06T12:35:36;17.60;;;10.40;;
82022;SDS011;71575;49.908;18.356;2024-03-06T12:38:37;16.88;;;10.07;;
82022;SDS011;71575;49.908;18.356;2024-03-06T12:41:39;20.05;;;11.60;;
82022;SDS011;71575;49.908;18.356;2024-03-06T12:44:44;17.65;;;10.85;;
82022;SDS011;71575;49.908;18.356;2024-03-06T12:47:45;18.20;;;11.60;;
82022;SDS011;71575;49.908;18.356;2024-03-06T12:50:47;18.80;;;10.90;;
82022;SDS011;71575;49.908;18.356;2024-03-06T12:53:49;18.30;;;12.20;;
82022;SDS011;71575;49.908;18.356;2024-03-06T12:56:51;18.20;;;8.55;;
82022;SDS011;71575;49.908;18.356;2024-03-06T12:59:58;17.73;;;11.68;;
82022;SDS011;71575;49.908;18.356;2024-03-06T13:02:59;19.50;;;10.70;;
82022;SDS011;71575;49.908;18.356;2024-03-06T13:06:03;20.13;;;10.15;;
82022;SDS011;71575;49.908;18.356;2024-03-06T13:09:05;19.60;;;11.60;;
82022;SDS011;71575;49.908;18.356;2024-03-06T13:12:05;19.60;;;11.35;;
82022;SDS011;71575;49.908;18.356;2024-03-06T13:15:07;16.58;;;8.75;;
82022;SDS011;71575;49.908;18.356;2024-03-06T13:18:11;20.80;;;11.57;;
82022;SDS011;71575;49.908;18.356;2024-03-06T13:21:11;18.40;;;10.75;;
82022;SDS011;71575;49.908;18.356;2024-03-06T13:24:13;20.08;;;12.23;;
82022;SDS011;71575;49.908;18.356;2024-03-06T13:27:14;19.83;;;10.70;;
82022;SDS011;71575;49.908;18.356;2024-03-06T13:30:18;21.75;;;11.80;;
82022;SDS011;71575;49.908;18.356;2024-03-06T13:33:19;18.58;;;10.95;;
82022;SDS011;71575;49.908;18.356;2024-03-06T13:36:28;17.85;;;11.00;;
82022;SDS011;71575;49.908;18.356;2024-03-06T13:39:36;17.33;;;10.95;;
82022;SDS011;71575;49.908;18.356;2024-03-06T13:42:37;17.20;;;10.27;;
82022;SDS011;71575;49.908;18.356;2024-03-06T13:45:47;19.08;;;11.38;;
82022;SDS011;71575;49.908;18.356;2024-03-06T13:48:52;17.65;;;7.63;;
82022;SDS011;71575;49.908;18.356;2024-03-06T13:51:53;19.30;;;10.82;;
82022;SDS011;71575;49.908;18.356;2024-03-06T13:54:53;19.55;;;13.35;;
82022;SDS011;71575;49.908;18.356;2024-03-06T13:57:54;20.45;;;11.38;;
82022;SDS011;71575;49.908;18.356;2024-03-06T14:00:58;18.73;;;10.32;;
82022;SDS011;71575;49.908;18.356;2024-03-06T14:03:59;18.52;;;11.25;;
82022;SDS011;71575;49.908;18.356;2024-03-06T14:06:59;21.05;;;11.48;;
82022;SDS011;71575;49.908;18.356;2024-03-06T14:10:00;21.58;;;11.77;;
82022;SDS011;71575;49.908;18.356;2024-03-06T14:13:05;19.10;;;10.60;;
82022;SDS011;71575;49.908;18.356;2024-03-06T14:16:07;21.30;;;10.95;;
82022;SDS011;71575;49.908;18.356;2024-03-06T14:19:08;21.50;;;11.65;;
82022;SDS011;71575;49.908;18.356;2024-03-06T14:22:13;20.90;;;11.55;;
82022;SDS011;71575;49.908;18.356;2024-03-06T14:25:19;20.63;;;11.35;;
82022;SDS011;71575;49.908;18.356;2024-03-06T14:28:20;22.65;;;12.00;;
82022;SDS011;71575;49.908;18.356;2024-03-06T14:31:21;23.25;;;10.93;;
82022;SDS011;71575;49.908;18.356;2024-03-06T14:34:22;20.42;;;10.70;;
82022;SDS011;71575;49.908;18.356;2024-03-06T14:37:24;21.27;;;12.88;;
82022;SDS011;71575;49.908;18.356;2024-03-06T14:40:30;21.45;;;11.32;;
82022;SDS011;71575;49.908;18.356;2024-03-06T14:43:33;24.80;;;12.20;;
82022;SDS011;71575;49.908;18.356;2024-03-06T14:46:34;21.25;;;11.23;;
82022;SDS011;71575;49.908;18.356;2024-03-06T14:49:36;22.52;;;12.07;;
82022;SDS011;71575;49.908;18.356;2024-03-06T14:52:38;26.33;;;12.23;;
82022;SDS011;71575;49.908;18.356;2024-03-06T14:55:38;22.25;;;11.35;;
82022;SDS011;71575;49.908;18.356;2024-03-06T14:58:39;25.90;;;13.07;;
82022;SDS011;71575;49.908;18.356;2024-03-06T15:01:40;22.73;;;13.10;;
82022;SDS011;71575;49.908;18.356;2024-03-06T15:04:43;23.85;;;10.43;;
82022;SDS011;71575;49.908;18.356;2024-03-06T15:07:44;26.73;;;13.52;;
82022;SDS011;71575;49.908;18.356;2024-03-06T15:10:44;22.35;;;11.52;;
82022;SDS011;71575;49.908;18.356;2024-03-06T15:13:45;25.05;;;12.50;;
82022;SDS011;71575;49.908;18.356;2024-03-06T15:16:47;22.48;;;9.82;;
82022;SDS011;71575;49.908;18.356;2024-03-06T15:19:51;18.48;;;10.75;;
82022;SDS011;71575;49.908;18.356;2024-03-06T15:22:53;20.70;;;9.82;;
82022;SDS011;71575;49.908;18.356;2024-03-06T15:25:54;22.63;;;11.43;;
82022;SDS011;71575;49.908;18.356;2024-03-06T15:28:56;23.05;;;11.50;;
82022;SDS011;71575;49.908;18.356;2024-03-06T15:32:00;20.60;;;10.60;;
82022;SDS011;71575;49.908;18.356;2024-03-06T15:35:01;22.88;;;9.60;;
82022;SDS011;71575;49.908;18.356;2024-03-06T15:38:02;20.67;;;11.35;;
82022;SDS011;71575;49.908;18.356;2024-03-06T15:41:03;23.20;;;10.60;;
82022;SDS011;71575;49.908;18.356;2024-03-06T15:44:04;24.48;;;10.90;;
82022;SDS011;71575;49.908;18.356;2024-03-06T15:47:04;24.13;;;12.93;;
82022;SDS011;71575;49.908;18.356;2024-03-06T15:50:06;23.60;;;13.23;;
82022;SDS011;71575;49.908;18.356;2024-03-06T15:53:07;27.83;;;12.93;;
82022;SDS011;71575;49.908;18.356;2024-03-06T15:56:10;22.95;;;13.18;;
82022;SDS011;71575;49.908;18.356;2024-03-06T15:59:11;23.67;;;13.02;;
82022;SDS011;71575;49.908;18.356;2024-03-06T16:02:12;28.20;;;14.05;;
82022;SDS011;71575;49.908;18.356;2024-03-06T16:05:12;23.50;;;11.23;;
82022;SDS011;71575;49.908;18.356;2024-03-06T16:08:13;26.73;;;14.98;;
82022;SDS011;71575;49.908;18.356;2024-03-06T16:11:15;24.08;;;15.32;;
82022;SDS011;71575;49.908;18.356;2024-03-06T16:14:18;23.33;;;11.77;;
82022;SDS011;71575;49.908;18.356;2024-03-06T16:17:19;26.08;;;14.15;;
82022;SDS011;71575;49.908;18.356;2024-03-06T16:20:20;28.45;;;15.45;;
82022;SDS011;71575;49.908;18.356;2024-03-06T16:23:21;26.25;;;14.68;;
82022;SDS011;71575;49.908;18.356;2024-03-06T16:26:26;27.42;;;15.98;;
82022;SDS011;71575;49.908;18.356;2024-03-06T16:29:27;29.23;;;14.30;;
82022;SDS011;71575;49.908;18.356;2024-03-06T16:32:30;26.23;;;13.95;;
82022;SDS011;71575;49.908;18.356;2024-03-06T16:35:34;31.42;;;16.35;;
82022;SDS011;71575;49.908;18.356;2024-03-06T16:38:41;30.27;;;15.57;;
82022;SDS011;71575;49.908;18.356;2024-03-06T16:41:48;28.92;;;13.65;;
82022;SDS011;71575;49.908;18.356;2024-03-06T16:44:49;28.17;;;15.63;;
82022;SDS011;71575;49.908;18.356;2024-03-06T16:47:49;31.73;;;17.75;;
82022;SDS011;71575;49.908;18.356;2024-03-06T16:50:50;32.42;;;17.65;;
82022;SDS011;71575;49.908;18.356;2024-03-06T16:53:51;28.95;;;17.17;;
82022;SDS011;71575;49.908;18.356;2024-03-06T16:56:53;26.55;;;12.90;;
82022;SDS011;71575;49.908;18.356;2024-03-06T16:59:53;27.75;;;15.57;;
82022;SDS011;71575;49.908;18.356;2024-03-06T17:02:54;29.42;;;15.55;;
82022;SDS011;71575;49.908;18.356;2024-03-06T17:05:56;31.08;;;17.25;;
82022;SDS011;71575;49.908;18.356;2024-03-06T17:08:58;27.25;;;16.02;;
82022;SDS011;71575;49.908;18.356;2024-03-06T17:12:06;23.58;;;11.07;;
82022;SDS011;71575;49.908;18.356;2024-03-06T17:15:07;27.23;;;14.13;;
82022;SDS011;71575;49.908;18.356;2024-03-06T17:18:08;23.48;;;13.30;;
82022;SDS011;71575;49.908;18.356;2024-03-06T17:21:10;31.50;;;16.08;;
82022;SDS011;71575;49.908;18.356;2024-03-06T17:24:11;24.83;;;14.10;;
82022;SDS011;71575;49.908;18.356;2024-03-06T17:27:12;27.40;;;16.05;;
82022;SDS011;71575;49.908;18.356;2024-03-06T17:30:13;21.67;;;11.75;;
82022;SDS011;71575;49.908;18.356;2024-03-06T17:33:14;25.08;;;15.27;;
82022;SDS011;71575;49.908;18.356;2024-03-06T17:36:18;26.25;;;14.90;;